createdAt,value
2019-06-26T00:02:14.588Z,10.13
2019-06-26T00:04:47.147Z,9.87
2019-06-26T00:07:19.684Z,9.00
2019-06-26T00:09:52.333Z,8.90
2019-06-26T00:12:25.049Z,8.87
2019-06-26T00:14:57.643Z,10.17
2019-06-26T00:17:30.293Z,11.67
2019-06-26T00:20:03.045Z,9.07
2019-06-26T00:22:35.706Z,9.47
2019-06-26T00:25:08.940Z,9.80
2019-06-26T00:27:41.641Z,9.47
2019-06-26T00:30:16.131Z,10.10
2019-06-26T00:32:48.704Z,9.37
2019-06-26T00:35:21.497Z,8.90
2019-06-26T00:37:54.060Z,10.73
2019-06-26T00:40:26.624Z,9.67
2019-06-26T00:42:59.602Z,10.10
2019-06-26T00:45:32.344Z,10.13
2019-06-26T00:48:04.975Z,9.20
2019-06-26T00:50:37.562Z,10.48
2019-06-26T00:53:10.235Z,9.40
2019-06-26T00:55:43.019Z,9.37
2019-06-26T00:58:15.584Z,8.67
2019-06-26T01:00:55.080Z,8.90
2019-06-26T01:03:27.539Z,9.17
2019-06-26T01:06:00.151Z,9.83
2019-06-26T01:08:32.654Z,10.07
2019-06-26T01:11:05.716Z,9.27
2019-06-26T01:13:38.253Z,11.70
2019-06-26T01:16:10.842Z,12.03
2019-06-26T01:18:43.413Z,10.13
2019-06-26T01:21:15.998Z,9.97
2019-06-26T01:23:48.784Z,10.10
2019-06-26T01:26:21.358Z,10.57
2019-06-26T01:28:53.984Z,10.20
2019-06-26T01:31:26.740Z,10.03
2019-06-26T01:33:59.149Z,9.70
2019-06-26T01:36:36.711Z,9.30
2019-06-26T01:39:09.505Z,10.03
2019-06-26T01:41:42.053Z,8.87
2019-06-26T01:44:15.786Z,9.10
2019-06-26T01:46:48.395Z,9.40
2019-06-26T01:49:20.926Z,9.50
2019-06-26T01:51:53.417Z,9.40
2019-06-26T01:54:25.848Z,10.30
2019-06-26T01:56:58.390Z,10.57
2019-06-26T01:59:35.738Z,10.13
2019-06-26T02:02:13.243Z,10.75
2019-06-26T02:04:50.875Z,11.63
2019-06-26T02:07:28.149Z,11.43
2019-06-26T02:10:07.062Z,12.17
2019-06-26T02:12:44.608Z,13.57
2019-06-26T02:15:22.584Z,11.63
2019-06-26T02:18:00.124Z,11.43
2019-06-26T02:20:37.647Z,11.83
2019-06-26T02:23:15.106Z,12.33
2019-06-26T02:25:52.406Z,12.00
2019-06-26T02:28:29.822Z,11.90
2019-06-26T02:31:07.097Z,10.93
2019-06-26T02:33:44.831Z,12.95
2019-06-26T02:36:22.338Z,11.37
2019-06-26T02:39:00.202Z,13.27
2019-06-26T02:41:37.785Z,13.80
2019-06-26T02:44:15.122Z,12.80
2019-06-26T02:46:52.639Z,15.03
2019-06-26T02:49:30.094Z,12.33
2019-06-26T02:52:02.510Z,11.10
2019-06-26T02:54:35.136Z,11.23
2019-06-26T02:57:07.465Z,11.87
2019-06-26T02:59:39.828Z,10.90
2019-06-26T03:02:12.295Z,11.43
2019-06-26T03:04:44.668Z,12.03
2019-06-26T03:07:17.123Z,12.23
2019-06-26T03:09:49.635Z,12.82
2019-06-26T03:12:22.019Z,13.10
2019-06-26T03:15:07.759Z,12.97
2019-06-26T03:17:54.821Z,13.00
2019-06-26T03:20:40.457Z,10.83
2019-06-26T03:23:12.980Z,13.17
2019-06-26T03:25:45.657Z,15.47
2019-06-26T03:28:18.150Z,15.40
2019-06-26T03:30:50.739Z,19.67
2019-06-26T03:33:23.219Z,14.17
2019-06-26T03:35:55.804Z,33.03
2019-06-26T03:38:28.360Z,21.37
2019-06-26T03:41:01.023Z,29.10
2019-06-26T03:43:35.637Z,24.97
2019-06-26T03:46:08.317Z,15.73
2019-06-26T03:48:40.720Z,22.93
2019-06-26T03:51:14.224Z,18.95
2019-06-26T03:53:46.864Z,21.87
2019-06-26T03:56:19.289Z,16.73
2019-06-26T03:58:51.851Z,18.65
2019-06-26T04:01:24.343Z,15.93
2019-06-26T04:04:01.867Z,16.53
2019-06-26T04:06:39.560Z,14.77
2019-06-26T04:09:17.160Z,14.97
2019-06-26T04:11:54.724Z,16.37
2019-06-26T04:14:32.430Z,19.30
2019-06-26T04:17:05.735Z,28.20
2019-06-26T04:19:38.438Z,31.10
2019-06-26T04:22:10.880Z,31.10
2019-06-26T04:24:43.186Z,33.07
2019-06-26T04:27:15.819Z,28.00
2019-06-26T04:29:48.426Z,22.47
2019-06-26T04:32:21.064Z,26.03
2019-06-26T04:34:54.632Z,23.17
2019-06-26T04:37:27.084Z,39.13
2019-06-26T04:39:59.513Z,22.70
2019-06-26T04:42:32.150Z,22.47
2019-06-26T04:45:07.584Z,17.83
2019-06-26T04:47:40.666Z,17.00
2019-06-26T04:50:13.618Z,18.23
2019-06-26T04:52:46.216Z,16.33
2019-06-26T04:55:28.261Z,15.13
2019-06-26T04:58:06.089Z,13.27
2019-06-26T05:00:39.158Z,15.93
2019-06-26T05:03:11.718Z,17.17
2019-06-26T05:05:44.613Z,18.27
2019-06-26T05:08:17.346Z,26.20
2019-06-26T05:10:49.850Z,24.10
2019-06-26T05:13:22.557Z,22.87
2019-06-26T05:15:55.094Z,25.07
2019-06-26T05:18:27.694Z,26.47
2019-06-26T05:21:00.279Z,31.97
2019-06-26T05:23:32.835Z,40.75
2019-06-26T05:26:05.501Z,47.57
2019-06-26T05:28:37.978Z,42.17
2019-06-26T05:31:10.476Z,48.10
2019-06-26T05:33:43.134Z,49.20
2019-06-26T05:36:16.016Z,43.10
2019-06-26T05:38:48.555Z,46.28
2019-06-26T05:41:21.202Z,47.80
2019-06-26T05:43:53.750Z,45.23
2019-06-26T05:46:30.972Z,46.37
2019-06-26T05:49:04.484Z,41.30
2019-06-26T05:51:36.886Z,47.27
2019-06-26T05:54:09.616Z,47.50
2019-06-26T05:56:45.150Z,49.15
2019-06-26T05:59:18.432Z,44.43
2019-06-26T06:01:51.475Z,43.53
2019-06-26T06:04:27.121Z,42.30
2019-06-26T06:06:59.643Z,43.97
2019-06-26T06:09:32.514Z,43.83
2019-06-26T06:12:05.208Z,45.23
2019-06-26T06:14:37.759Z,45.47
2019-06-26T06:17:10.308Z,43.07
2019-06-26T06:19:42.904Z,43.33
2019-06-26T06:22:15.556Z,42.73
2019-06-26T06:24:48.395Z,43.42
2019-06-26T06:27:23.971Z,42.00
2019-06-26T06:29:56.711Z,45.03
2019-06-26T06:32:29.165Z,45.20
2019-06-26T06:35:01.699Z,43.08
2019-06-26T06:37:34.318Z,41.90
2019-06-26T06:40:07.898Z,45.73
2019-06-26T06:42:40.455Z,43.80
2019-06-26T06:45:14.902Z,40.60
2019-06-26T06:47:47.388Z,44.20
2019-06-26T06:50:19.935Z,42.13
2019-06-26T06:52:52.541Z,42.53
2019-06-26T06:55:25.091Z,45.50
2019-06-26T06:57:57.668Z,47.93
2019-06-26T07:00:30.367Z,42.13
2019-06-26T07:03:05.591Z,45.40
2019-06-26T07:05:38.637Z,39.97
2019-06-26T07:08:11.197Z,44.00
2019-06-26T07:10:43.767Z,44.03
2019-06-26T07:13:16.616Z,50.35
2019-06-26T07:15:49.096Z,45.22
2019-06-26T07:18:21.791Z,48.20
2019-06-26T07:20:54.278Z,41.50
2019-06-26T07:23:26.695Z,39.73
2019-06-26T07:25:59.199Z,42.50
2019-06-26T07:28:31.824Z,40.33
2019-06-26T07:31:04.368Z,44.90
2019-06-26T07:33:36.824Z,45.93
2019-06-26T07:36:09.453Z,40.63
2019-06-26T07:38:41.955Z,39.37
2019-06-26T07:41:14.578Z,47.10
2019-06-26T07:43:47.169Z,38.60
2019-06-26T07:46:19.603Z,42.17
2019-06-26T07:48:52.186Z,43.20
2019-06-26T07:51:24.894Z,48.17
2019-06-26T07:53:57.329Z,41.70
2019-06-26T07:56:29.770Z,41.20
2019-06-26T07:59:02.401Z,43.50
2019-06-26T08:01:35.101Z,38.33
2019-06-26T08:04:07.755Z,43.20
2019-06-26T08:06:40.766Z,36.37
2019-06-26T08:09:52.425Z,42.07
2019-06-26T08:12:31.799Z,35.73
2019-06-26T08:15:06.823Z,38.53
2019-06-26T08:17:40.735Z,38.80
2019-06-26T08:20:13.822Z,37.30
2019-06-26T08:22:46.389Z,40.17
2019-06-26T08:25:20.554Z,38.17
2019-06-26T08:27:53.367Z,30.93
2019-06-26T08:30:26.406Z,34.10
2019-06-26T08:32:59.175Z,37.50
2019-06-26T08:35:31.831Z,32.07
2019-06-26T08:38:11.148Z,29.70
2019-06-26T08:40:46.984Z,26.48
2019-06-26T08:43:19.510Z,23.23
2019-06-26T08:45:52.709Z,27.55
2019-06-26T08:48:38.756Z,26.03
2019-06-26T08:51:13.172Z,26.17
2019-06-26T08:53:46.280Z,26.57
2019-06-26T08:56:18.876Z,33.13
2019-06-26T08:58:51.470Z,25.77
2019-06-26T09:01:36.239Z,34.37
2019-06-26T09:04:13.749Z,30.60
2019-06-26T09:06:46.944Z,34.70
2019-06-26T09:09:19.613Z,27.62
2019-06-26T09:11:52.913Z,27.27
2019-06-26T09:14:25.587Z,31.23
2019-06-26T09:16:58.416Z,35.07
2019-06-26T09:19:31.049Z,26.80
2019-06-26T09:22:08.890Z,25.27
2019-06-26T09:24:41.758Z,27.70
2019-06-26T09:27:15.134Z,28.40
2019-06-26T09:29:47.971Z,24.53
2019-06-26T09:32:20.539Z,30.10
2019-06-26T09:34:53.116Z,33.23
2019-06-26T09:37:26.603Z,30.20
2019-06-26T09:39:59.167Z,22.17
2019-06-26T09:42:31.845Z,24.30
2019-06-26T09:45:06.487Z,25.40
2019-06-26T09:47:39.063Z,26.30
2019-06-26T09:50:12.230Z,30.03
2019-06-26T09:52:44.810Z,27.37
2019-06-26T09:55:18.006Z,30.10
2019-06-26T09:57:50.506Z,28.57
2019-06-26T10:00:25.027Z,25.33
2019-06-26T10:02:58.205Z,29.90
2019-06-26T10:05:31.175Z,22.37
2019-06-26T10:08:03.790Z,27.47
2019-06-26T10:10:36.568Z,18.40
2019-06-26T10:13:09.103Z,16.27
2019-06-26T10:15:41.575Z,14.63
2019-06-26T10:18:14.150Z,13.13
2019-06-26T10:20:46.745Z,13.50
2019-06-26T10:23:19.338Z,14.27
2019-06-26T10:25:51.915Z,14.70
2019-06-26T10:28:24.671Z,11.30
2019-06-26T10:30:57.246Z,16.27
2019-06-26T10:33:30.384Z,21.90
2019-06-26T10:36:03.214Z,19.30
2019-06-26T10:38:35.795Z,20.87
2019-06-26T10:41:08.369Z,18.43
2019-06-26T10:43:40.752Z,21.90
2019-06-26T10:46:13.414Z,25.03
2019-06-26T10:48:46.021Z,23.27
2019-06-26T10:51:19.032Z,20.20
2019-06-26T10:53:51.552Z,17.87
2019-06-26T10:56:27.515Z,17.17
2019-06-26T10:59:01.410Z,18.60
2019-06-26T11:01:34.207Z,14.73
2019-06-26T11:04:06.783Z,12.63
2019-06-26T11:06:57.810Z,16.63
2019-06-26T11:09:30.486Z,12.53
2019-06-26T11:12:03.071Z,14.43
2019-06-26T11:14:35.638Z,16.40
2019-06-26T11:17:08.170Z,26.47
2019-06-26T11:19:44.293Z,22.40
2019-06-26T11:22:17.924Z,28.33
2019-06-26T11:24:50.582Z,33.63
2019-06-26T11:27:23.020Z,25.83
2019-06-26T11:29:55.848Z,29.63
2019-06-26T11:32:28.503Z,35.97
2019-06-26T11:35:01.078Z,27.80
2019-06-26T11:37:33.648Z,29.07
2019-06-26T11:40:07.864Z,34.80
2019-06-26T11:42:41.073Z,35.20
2019-06-26T11:45:20.685Z,24.43
2019-06-26T11:47:53.255Z,26.10
2019-06-26T11:50:26.791Z,21.67
2019-06-26T11:52:59.290Z,24.90
2019-06-26T11:55:31.847Z,26.00
2019-06-26T11:58:04.536Z,21.97
2019-06-26T12:00:45.690Z,15.83
2019-06-26T12:03:29.043Z,14.23
2019-06-26T12:06:17.953Z,15.17
2019-06-26T12:08:52.778Z,18.97
2019-06-26T12:11:25.367Z,14.87
2019-06-26T12:13:58.861Z,17.30
2019-06-26T12:16:31.460Z,12.85
2019-06-26T12:19:04.286Z,17.15
2019-06-26T12:21:36.784Z,21.70
2019-06-26T12:24:09.626Z,17.53
2019-06-26T12:26:42.414Z,19.87
2019-06-26T12:29:15.184Z,16.43
2019-06-26T12:31:47.959Z,17.57
2019-06-26T12:34:20.429Z,18.70
2019-06-26T12:36:53.076Z,24.00
2019-06-26T12:39:25.971Z,19.47
2019-06-26T12:41:58.763Z,17.27
2019-06-26T12:44:31.423Z,17.90
2019-06-26T12:47:04.062Z,20.57
2019-06-26T12:49:36.872Z,19.30
2019-06-26T12:52:09.418Z,21.70
2019-06-26T12:54:43.102Z,16.93
2019-06-26T12:57:15.613Z,14.57
2019-06-26T12:59:57.427Z,18.90
2019-06-26T13:02:31.091Z,21.07
2019-06-26T13:05:04.611Z,23.40
2019-06-26T13:07:37.251Z,23.75
2019-06-26T13:10:12.556Z,18.60
2019-06-26T13:12:46.068Z,19.70
2019-06-26T13:15:19.147Z,18.03
2019-06-26T13:17:52.698Z,18.02
2019-06-26T13:20:25.287Z,17.03
2019-06-26T13:22:58.107Z,12.13
2019-06-26T13:25:30.716Z,15.70
2019-06-26T13:28:03.803Z,13.03
2019-06-26T13:30:39.275Z,14.70
2019-06-26T13:33:11.838Z,15.53
2019-06-26T13:35:44.554Z,13.67
2019-06-26T13:38:17.952Z,19.73
2019-06-26T13:40:50.489Z,12.13
2019-06-26T13:43:22.961Z,14.83
2019-06-26T13:45:58.763Z,15.40
2019-06-26T13:48:31.607Z,14.17
2019-06-26T13:51:09.178Z,16.93
2019-06-26T13:53:42.330Z,16.10
2019-06-26T13:56:15.332Z,14.70
2019-06-26T13:58:47.849Z,13.87
2019-06-26T14:01:23.027Z,12.75
2019-06-26T14:03:55.966Z,14.50
2019-06-26T14:06:28.530Z,13.60
2019-06-26T14:09:01.157Z,19.50
2019-06-26T14:11:33.797Z,20.47
2019-06-26T14:14:06.535Z,15.20
2019-06-26T14:16:39.181Z,17.80
2019-06-26T14:19:11.798Z,19.63
2019-06-26T14:21:45.353Z,18.53
2019-06-26T14:24:19.976Z,16.10
2019-06-26T14:26:53.060Z,16.33
2019-06-26T14:29:28.764Z,13.43
2019-06-26T14:32:01.284Z,12.53
2019-06-26T14:34:34.540Z,15.30
2019-06-26T14:37:07.184Z,14.30
2019-06-26T14:39:41.034Z,13.73
2019-06-26T14:42:13.774Z,10.57
2019-06-26T14:44:47.542Z,10.00
2019-06-26T14:47:20.361Z,9.70
2019-06-26T14:49:53.144Z,10.97
2019-06-26T14:52:26.680Z,9.63
2019-06-26T14:54:59.391Z,10.37
2019-06-26T14:57:37.854Z,10.10
2019-06-26T15:00:16.055Z,10.07
2019-06-26T15:02:48.890Z,10.00
2019-06-26T15:05:21.543Z,9.50
2019-06-26T15:07:54.160Z,11.10
2019-06-26T15:10:27.172Z,13.17
2019-06-26T15:13:01.368Z,11.90
2019-06-26T15:15:34.308Z,14.23
2019-06-26T15:18:07.091Z,12.47
2019-06-26T15:20:40.286Z,14.10
2019-06-26T15:23:12.967Z,13.13
2019-06-26T15:25:46.151Z,13.47
2019-06-26T15:28:18.628Z,14.07
2019-06-26T15:30:52.714Z,12.87
2019-06-26T15:33:25.311Z,15.63
2019-06-26T15:35:58.045Z,14.80
2019-06-26T15:38:30.589Z,12.80
2019-06-26T15:41:04.996Z,16.00
2019-06-26T15:43:37.668Z,18.30
2019-06-26T15:46:10.421Z,17.37
2019-06-26T15:48:43.073Z,15.20
2019-06-26T15:51:15.618Z,14.83
2019-06-26T15:53:48.402Z,16.80
2019-06-26T15:56:20.981Z,14.13
2019-06-26T15:58:55.020Z,15.20
2019-06-26T16:01:27.941Z,15.47
2019-06-26T16:04:00.960Z,14.07
2019-06-26T16:06:34.876Z,16.07
2019-06-26T16:09:08.052Z,15.10
2019-06-26T16:11:40.683Z,15.53
2019-06-26T16:14:13.344Z,14.27
2019-06-26T16:16:52.094Z,15.10
2019-06-26T16:19:25.358Z,15.23
2019-06-26T16:21:58.122Z,14.70
2019-06-26T16:24:30.680Z,12.67
2019-06-26T16:27:03.433Z,13.80
2019-06-26T16:29:36.119Z,13.27
2019-06-26T16:32:08.654Z,10.93
2019-06-26T16:34:41.466Z,11.07
2019-06-26T16:37:15.445Z,12.03
2019-06-26T16:39:49.370Z,9.53
2019-06-26T16:42:22.219Z,12.73
2019-06-26T16:44:57.865Z,9.10
2019-06-26T16:47:31.186Z,10.65
2019-06-26T16:50:04.156Z,11.07
2019-06-26T16:52:48.578Z,9.90
2019-06-26T16:55:22.328Z,11.90
2019-06-26T16:57:55.768Z,13.05
2019-06-26T17:00:30.339Z,8.87
2019-06-26T17:03:02.888Z,10.50
2019-06-26T17:05:35.457Z,8.13
2019-06-26T17:08:08.010Z,11.70
2019-06-26T17:10:42.192Z,8.90
2019-06-26T17:13:15.632Z,9.77
2019-06-26T17:15:48.183Z,9.33
2019-06-26T17:18:21.289Z,9.48
2019-06-26T17:20:54.040Z,8.63
2019-06-26T17:23:27.101Z,8.40
2019-06-26T17:25:59.706Z,8.57
2019-06-26T17:28:32.480Z,8.73
2019-06-26T17:31:08.603Z,10.37
2019-06-26T17:33:41.236Z,8.40
2019-06-26T17:36:13.733Z,8.27
2019-06-26T17:38:46.363Z,8.73
2019-06-26T17:41:19.190Z,12.47
2019-06-26T17:43:56.617Z,9.50
2019-06-26T17:46:29.213Z,8.40
2019-06-26T17:49:01.805Z,9.77
2019-06-26T17:51:34.507Z,9.70
2019-06-26T17:54:08.059Z,10.40
2019-06-26T17:56:41.453Z,11.40
2019-06-26T17:59:17.600Z,9.70
2019-06-26T18:01:55.723Z,10.03
2019-06-26T18:04:29.716Z,11.23
2019-06-26T18:07:03.326Z,11.93
2019-06-26T18:09:35.857Z,11.63
2019-06-26T18:12:08.524Z,10.93
2019-06-26T18:14:43.221Z,10.83
2019-06-26T18:17:21.909Z,10.27
2019-06-26T18:19:55.635Z,10.17
2019-06-26T18:22:28.219Z,10.67
2019-06-26T18:25:00.924Z,10.10
2019-06-26T18:27:33.603Z,9.70
2019-06-26T18:30:13.392Z,9.17
2019-06-26T18:32:47.140Z,10.30
2019-06-26T18:35:19.668Z,9.70
2019-06-26T18:37:52.452Z,10.23
2019-06-26T18:40:25.153Z,10.30
2019-06-26T18:42:57.650Z,9.50
2019-06-26T18:45:30.215Z,8.60
2019-06-26T18:48:02.859Z,10.30
2019-06-26T18:50:35.338Z,8.13
2019-06-26T18:53:07.918Z,9.60
2019-06-26T18:55:40.581Z,10.80
2019-06-26T18:58:13.188Z,10.33
2019-06-26T19:00:45.816Z,9.93
2019-06-26T19:03:19.135Z,8.83
2019-06-26T19:05:52.793Z,8.70
2019-06-26T19:08:26.148Z,9.03
2019-06-26T19:10:59.643Z,8.13
2019-06-26T19:13:32.172Z,10.50
2019-06-26T19:16:06.434Z,13.87
2019-06-26T19:18:39.080Z,10.57
2019-06-26T19:21:12.416Z,8.17
2019-06-26T19:23:45.075Z,7.90
2019-06-26T19:26:17.589Z,8.60
2019-06-26T19:28:50.416Z,7.97
2019-06-26T19:31:23.291Z,9.43
2019-06-26T19:33:57.183Z,8.80
2019-06-26T19:36:29.751Z,10.33
2019-06-26T19:39:04.701Z,7.00
2019-06-26T19:41:37.325Z,7.67
2019-06-26T19:44:10.183Z,7.47
2019-06-26T19:46:42.792Z,10.60
2019-06-26T19:49:15.359Z,9.13
2019-06-26T19:51:47.923Z,6.57
2019-06-26T19:54:26.991Z,8.67
2019-06-26T19:57:01.408Z,7.53
2019-06-26T19:59:35.152Z,8.43
2019-06-26T20:02:08.698Z,7.80
2019-06-26T20:04:41.440Z,6.67
2019-06-26T20:07:14.345Z,5.97
2019-06-26T20:09:46.961Z,5.90
2019-06-26T20:12:19.902Z,7.23
2019-06-26T20:14:52.578Z,5.17
2019-06-26T20:17:25.104Z,4.60
2019-06-26T20:19:58.772Z,4.60
2019-06-26T20:22:31.758Z,5.83
2019-06-26T20:25:04.500Z,5.27
2019-06-26T20:27:37.228Z,4.57
2019-06-26T20:30:10.760Z,4.60
2019-06-26T20:32:45.331Z,6.00
2019-06-26T20:35:18.071Z,6.47
2019-06-26T20:37:50.714Z,5.28
2019-06-26T20:40:23.248Z,4.13
2019-06-26T20:42:55.903Z,4.20
2019-06-26T20:45:28.669Z,5.03
2019-06-26T20:48:01.552Z,4.33
2019-06-26T20:50:34.505Z,4.87
2019-06-26T20:53:07.137Z,3.80
2019-06-26T20:55:39.692Z,4.18
2019-06-26T20:58:12.288Z,4.23
2019-06-26T21:00:45.017Z,6.25
2019-06-26T21:03:21.048Z,5.40
2019-06-26T21:05:53.996Z,5.60
2019-06-26T21:08:29.379Z,4.75
2019-06-26T21:11:02.534Z,3.80
2019-06-26T21:13:35.505Z,6.13
2019-06-26T21:16:08.567Z,6.13
2019-06-26T21:18:41.170Z,4.83
2019-06-26T21:21:13.825Z,4.67
2019-06-26T21:23:46.377Z,5.17
2019-06-26T21:26:19.348Z,4.87
2019-06-26T21:28:51.897Z,5.10
2019-06-26T21:31:24.600Z,5.67
2019-06-26T21:33:57.145Z,5.90
2019-06-26T21:36:29.824Z,7.60
2019-06-26T21:39:05.692Z,6.13
2019-06-26T21:41:38.731Z,4.77
2019-06-26T21:44:11.601Z,5.47
2019-06-26T21:46:44.275Z,4.40
2019-06-26T21:49:16.773Z,4.47
2019-06-26T21:51:49.434Z,4.00
2019-06-26T21:54:21.968Z,4.33
2019-06-26T21:56:54.764Z,5.37
2019-06-26T21:59:27.336Z,5.87
2019-06-26T22:01:59.849Z,8.23
2019-06-26T22:04:32.579Z,5.93
2019-06-26T22:07:05.234Z,6.47
2019-06-26T22:09:37.863Z,8.30
2019-06-26T22:12:10.438Z,5.23
2019-06-26T22:14:43.106Z,4.23
2019-06-26T22:17:15.680Z,6.67
2019-06-26T22:19:48.243Z,3.47
2019-06-26T22:22:20.777Z,8.20
2019-06-26T22:24:53.483Z,7.87
2019-06-26T22:27:25.975Z,8.73
2019-06-26T22:29:58.547Z,5.03
2019-06-26T22:32:31.015Z,8.17
2019-06-26T22:35:03.756Z,8.20
2019-06-26T22:37:36.828Z,5.17
2019-06-26T22:40:09.885Z,6.43
2019-06-26T22:42:42.339Z,4.87
2019-06-26T22:45:18.377Z,7.27
2019-06-26T22:47:50.836Z,8.70
2019-06-26T22:50:23.366Z,9.67
2019-06-26T22:52:55.824Z,6.00
2019-06-26T22:55:28.420Z,9.67
2019-06-26T22:58:02.385Z,7.30
2019-06-26T23:00:35.108Z,7.13
2019-06-26T23:03:07.768Z,7.10
2019-06-26T23:05:40.688Z,5.07
2019-06-26T23:08:14.289Z,9.27
2019-06-26T23:10:47.175Z,9.77
2019-06-26T23:13:19.956Z,6.40
2019-06-26T23:15:52.394Z,5.83
2019-06-26T23:18:25.383Z,5.33
2019-06-26T23:20:57.924Z,7.60
2019-06-26T23:23:30.372Z,5.83
2019-06-26T23:26:02.878Z,7.13
2019-06-26T23:28:35.279Z,8.63
2019-06-26T23:31:09.076Z,7.87
2019-06-26T23:33:41.936Z,9.37
2019-06-26T23:36:15.266Z,13.30
2019-06-26T23:38:48.725Z,7.70
2019-06-26T23:41:21.131Z,5.83
2019-06-26T23:43:53.784Z,10.70
2019-06-26T23:46:26.660Z,11.97
2019-06-26T23:48:59.582Z,6.00
2019-06-26T23:51:32.262Z,6.23
2019-06-26T23:54:04.835Z,6.27
2019-06-26T23:56:40.620Z,8.23
2019-06-26T23:59:13.943Z,11.47
